Time;durP1;ratioP1;P1;durP2;ratioP2;P2;SDS_P1;SDS_P2;PMS_P1;PMS_P2;Temp;Humidity;BMP_temperature;BMP_pressure;BME280_temperature;BME280_humidity;BME280_pressure;Samples;Min_cycle;Max_cycle;Signal;HPM_P1;HPM_P2
2023/10/01 00:02:03;;;;;;;;;10.00;8.00;;;;;;;;5068345;28;9126;-80
2023/10/01 00:04:36;;;;;;;;;8.33;7.00;;;;;;;;5068633;28;9178;-79
2023/10/01 00:07:06;;;;;;;;;7.33;5.33;;;;;;;;5068870;28;9295;-81
2023/10/01 00:09:33;;;;;;;;;10.33;6.33;;;;;;;;5068905;28;9257;-80
2023/10/01 00:12:05;;;;;;;;;6.00;6.00;;;;;;;;5069954;28;9339;-80
2023/10/01 00:14:32;;;;;;;;;8.00;8.00;;;;;;;;5067754;28;9214;-81
2023/10/01 00:17:04;;;;;;;;;8.00;8.00;;;;;;;;5069152;28;10244;-80
2023/10/01 00:19:33;;;;;;;;;7.33;7.33;;;;;;;;5068293;28;9237;-80
2023/10/01 00:22:05;;;;;;;;;9.67;7.67;;;;;;;;5068244;28;9313;-80
2023/10/01 00:24:35;;;;;;;;;7.67;7.67;;;;;;;;5067977;28;10191;-80
2023/10/01 00:27:08;;;;;;;;;5.33;4.00;;;;;;;;5068622;28;9352;-80
2023/10/01 00:29:35;;;;;;;;;9.00;6.67;;;;;;;;5066788;28;9257;-81
2023/10/01 00:32:02;;;;;;;;;12.00;6.00;;;;;;;;5066920;28;9215;-80
2023/10/01 00:34:32;;;;;;;;;7.33;5.00;;;;;;;;5070193;28;9439;-80
2023/10/01 00:37:02;;;;;;;;;5.67;5.67;;;;;;;;5069491;28;9163;-80
2023/10/01 00:39:29;;;;;;;;;7.00;5.00;;;;;;;;5068356;28;9113;-80
2023/10/01 00:41:57;;;;;;;;;7.33;7.00;;;;;;;;5068152;28;9182;-80
2023/10/01 00:44:24;;;;;;;;;8.33;7.67;;;;;;;;5068377;28;9341;-80
2023/10/01 00:46:51;;;;;;;;;7.33;6.00;;;;;;;;5068338;28;9243;-80
2023/10/01 00:49:21;;;;;;;;;8.00;6.00;;;;;;;;5067341;28;9255;-80
2023/10/01 00:51:48;;;;;;;;;12.00;7.00;;;;;;;;5067937;28;9263;-81
2023/10/01 00:54:17;;;;;;;;;8.00;6.67;;;;;;;;5068461;28;9275;-81
2023/10/01 00:56:44;;;;;;;;;6.67;6.67;;;;;;;;5068172;28;9252;-81
2023/10/01 00:59:13;;;;;;;;;9.00;7.33;;;;;;;;5068380;28;9419;-81
2023/10/01 01:01:41;;;;;;;;;6.67;6.67;;;;;;;;5067821;28;9414;-80
2023/10/01 01:04:17;;;;;;;;;5.00;5.00;;;;;;;;5068301;28;10185;-80
2023/10/01 01:06:47;;;;;;;;;8.00;7.67;;;;;;;;5067341;28;9312;-81
2023/10/01 01:09:19;;;;;;;;;5.00;5.00;;;;;;;;5071809;28;9324;-79
2023/10/01 01:11:47;;;;;;;;;4.33;4.33;;;;;;;;5075249;28;9410;-79
2023/10/01 01:14:15;;;;;;;;;7.00;6.00;;;;;;;;5077586;28;9323;-81
2023/10/01 01:16:45;;;;;;;;;11.00;8.00;;;;;;;;5077665;28;9370;-81
2023/10/01 01:19:12;;;;;;;;;8.67;8.67;;;;;;;;5066332;28;9376;-80
2023/10/01 01:21:42;;;;;;;;;7.00;7.00;;;;;;;;5078427;28;9606;-81
2023/10/01 01:24:11;;;;;;;;;6.33;6.33;;;;;;;;5078532;28;9354;-79
2023/10/01 01:26:41;;;;;;;;;7.00;7.00;;;;;;;;5072963;28;9373;-81
2023/10/01 01:29:18;;;;;;;;;11.67;8.33;;;;;;;;5071863;28;9168;-81
2023/10/01 01:31:46;;;;;;;;;12.00;8.00;;;;;;;;5071122;28;9300;-82
2023/10/01 01:34:14;;;;;;;;;8.33;8.33;;;;;;;;5063136;28;9533;-81
2023/10/01 01:36:42;;;;;;;;;8.00;8.00;;;;;;;;5070766;28;9440;-80
2023/10/01 01:39:26;;;;;;;;;6.00;6.00;;;;;;;;5071686;28;9401;-81
2023/10/01 01:41:54;;;;;;;;;6.33;5.00;;;;;;;;5071472;28;9315;-80
2023/10/01 01:44:23;;;;;;;;;6.67;6.67;;;;;;;;5070840;28;10422;-81
2023/10/01 01:47:00;;;;;;;;;7.67;6.33;;;;;;;;5071796;28;9424;-81
2023/10/01 01:49:27;;;;;;;;;13.00;10.33;;;;;;;;5071456;28;9240;-78
2023/10/01 01:51:57;;;;;;;;;3.33;3.33;;;;;;;;5074460;28;9454;-79
2023/10/01 01:54:31;;;;;;;;;9.75;8.00;;;;;;;;5076401;28;9420;-80
2023/10/01 01:56:58;;;;;;;;;6.67;6.33;;;;;;;;5078194;28;9393;-81
2023/10/01 01:59:27;;;;;;;;;7.33;7.00;;;;;;;;5071841;28;9394;-80
2023/10/01 02:01:56;;;;;;;;;6.33;6.33;;;;;;;;5070949;28;9371;-81
2023/10/01 02:04:23;;;;;;;;;9.33;6.33;;;;;;;;5070479;28;9477;-80
2023/10/01 02:06:52;;;;;;;;;10.00;8.00;;;;;;;;5082810;28;9309;-80
2023/10/01 02:09:21;;;;;;;;;8.67;8.00;;;;;;;;5070951;28;9559;-80
2023/10/01 02:11:53;;;;;;;;;8.33;6.67;;;;;;;;5070790;28;9421;-80
2023/10/01 02:14:35;;;;;;;;;11.33;10.00;;;;;;;;5058476;28;9255;-80
2023/10/01 02:17:13;;;;;;;;;8.33;7.00;;;;;;;;5083458;28;9474;-81
2023/10/01 02:19:41;;;;;;;;;12.25;9.75;;;;;;;;5070390;28;10305;-80
2023/10/01 02:22:08;;;;;;;;;7.33;6.33;;;;;;;;5070558;28;9537;-80
2023/10/01 02:24:44;;;;;;;;;8.33;7.00;;;;;;;;5072186;28;9331;-80
2023/10/01 02:27:15;;;;;;;;;9.67;6.33;;;;;;;;5071335;28;9300;-80
2023/10/01 02:32:29;;;;;;;;;11.25;9.25;;;;;;;;5070284;28;9366;-80
2023/10/01 02:34:58;;;;;;;;;10.67;7.67;;;;;;;;5070278;28;9529;-80
2023/10/01 02:37:29;;;;;;;;;7.00;7.00;;;;;;;;5070812;28;9357;-80
2023/10/01 02:39:56;;;;;;;;;8.75;7.25;;;;;;;;5070541;28;9394;-80
2023/10/01 02:42:27;;;;;;;;;5.00;5.00;;;;;;;;5070922;28;9554;-81
2023/10/01 02:44:56;;;;;;;;;16.00;8.75;;;;;;;;5070655;28;9343;-80
2023/10/01 02:47:23;;;;;;;;;11.33;8.00;;;;;;;;5071141;28;9381;-80
2023/10/01 02:49:52;;;;;;;;;9.00;9.00;;;;;;;;5070719;28;9378;-80
2023/10/01 02:52:21;;;;;;;;;9.50;9.00;;;;;;;;5072177;28;10262;-80
2023/10/01 02:54:53;;;;;;;;;10.25;9.00;;;;;;;;5071710;28;9538;-79
2023/10/01 02:57:33;;;;;;;;;7.67;4.67;;;;;;;;5075338;28;9546;-80
2023/10/01 03:00:20;;;;;;;;;9.50;9.50;;;;;;;;5066032;28;9453;-81
2023/10/01 03:02:51;;;;;;;;;8.33;8.33;;;;;;;;5075514;28;9445;-80
2023/10/01 03:05:23;;;;;;;;;13.75;8.50;;;;;;;;5076484;28;9410;-78
2023/10/01 03:07:52;;;;;;;;;9.25;6.75;;;;;;;;5074536;28;9543;-80
2023/10/01 03:10:26;;;;;;;;;9.25;7.50;;;;;;;;5072137;28;10387;-80
2023/10/01 03:12:55;;;;;;;;;9.00;8.00;;;;;;;;5069610;28;9491;-80
2023/10/01 03:15:29;;;;;;;;;9.00;8.00;;;;;;;;5069562;28;9598;-80
2023/10/01 03:17:57;;;;;;;;;13.00;11.00;;;;;;;;5070189;28;9529;-80
2023/10/01 03:23:24;;;;;;;;;9.00;8.33;;;;;;;;5069590;28;9469;-79
2023/10/01 03:25:58;;;;;;;;;8.00;7.00;;;;;;;;5058592;28;9464;-80
2023/10/01 03:28:33;;;;;;;;;8.33;5.00;;;;;;;;5069694;28;9418;-81
2023/10/01 03:31:08;;;;;;;;;8.00;6.50;;;;;;;;5068434;28;9241;-80
2023/10/01 03:33:39;;;;;;;;;8.75;8.75;;;;;;;;5069536;28;9533;-80
2023/10/01 03:36:10;;;;;;;;;7.50;7.50;;;;;;;;5070858;28;9487;-80
2023/10/01 03:38:43;;;;;;;;;6.75;6.75;;;;;;;;5071086;28;9662;-80
2023/10/01 03:41:20;;;;;;;;;10.50;9.50;;;;;;;;5070379;28;9654;-80
2023/10/01 03:43:50;;;;;;;;;7.00;7.00;;;;;;;;5070380;28;9695;-80
2023/10/01 03:46:26;;;;;;;;;10.75;9.25;;;;;;;;5081822;28;9545;-80
2023/10/01 03:49:00;;;;;;;;;7.00;6.50;;;;;;;;5067645;28;9550;-80
2023/10/01 03:54:14;;;;;;;;;8.00;7.75;;;;;;;;5068085;28;9619;-81
2023/10/01 03:56:45;;;;;;;;;9.00;7.00;;;;;;;;5068507;28;9624;-80
2023/10/01 03:59:16;;;;;;;;;4.00;3.00;;;;;;;;5067961;28;9820;-80
2023/10/01 04:02:02;;;;;;;;;7.50;6.50;;;;;;;;5067763;28;9494;-80
2023/10/01 04:04:31;;;;;;;;;8.50;7.25;;;;;;;;5068190;28;10394;-79
2023/10/01 04:07:10;;;;;;;;;6.50;6.50;;;;;;;;5067970;28;9471;-79
2023/10/01 04:09:46;;;;;;;;;7.25;7.25;;;;;;;;5057516;28;9473;-80
2023/10/01 04:12:26;;;;;;;;;6.50;6.00;;;;;;;;5066827;28;9650;-80
2023/10/01 04:14:54;;;;;;;;;11.00;7.75;;;;;;;;5068712;28;10421;-80
2023/10/01 04:17:28;;;;;;;;;10.75;8.75;;;;;;;;5068414;28;9531;-80
2023/10/01 04:20:00;;;;;;;;;8.50;6.75;;;;;;;;5070432;28;9491;-79
2023/10/01 04:22:29;;;;;;;;;9.33;5.33;;;;;;;;5069896;28;9486;-80
2023/10/01 04:25:09;;;;;;;;;12.25;9.50;;;;;;;;5068386;28;9497;-81
2023/10/01 04:27:36;;;;;;;;;8.50;8.50;;;;;;;;5068411;28;9563;-80
2023/10/01 04:30:08;;;;;;;;;3.25;3.25;;;;;;;;5066951;28;9563;-80
2023/10/01 04:32:38;;;;;;;;;7.00;7.00;;;;;;;;5068048;28;9528;-80
2023/10/01 04:35:14;;;;;;;;;8.25;7.00;;;;;;;;5068161;28;9619;-80
2023/10/01 04:37:42;;;;;;;;;7.00;7.00;;;;;;;;5070716;28;9706;-82
2023/10/01 04:43:04;;;;;;;;;8.00;8.00;;;;;;;;5077323;28;9446;-79
2023/10/01 04:45:36;;;;;;;;;16.75;9.00;;;;;;;;5073982;28;9512;-80
2023/10/01 04:48:15;;;;;;;;;4.25;4.00;;;;;;;;5086678;28;9538;-80
2023/10/01 04:50:42;;;;;;;;;7.00;7.00;;;;;;;;5074082;28;9890;-81
2023/10/01 04:53:14;;;;;;;;;8.50;8.50;;;;;;;;5070409;28;9551;-80
2023/10/01 04:55:42;;;;;;;;;9.50;9.50;;;;;;;;5067524;28;9614;-83
2023/10/01 04:58:12;;;;;;;;;8.00;7.25;;;;;;;;5067044;28;9779;-81
2023/10/01 05:00:41;;;;;;;;;8.25;6.25;;;;;;;;5067074;28;9527;-82
2023/10/01 05:03:10;;;;;;;;;7.75;5.50;;;;;;;;5067076;28;9619;-83
2023/10/01 05:05:38;;;;;;;;;7.50;7.50;;;;;;;;5067512;28;9536;-83
2023/10/01 05:08:06;;;;;;;;;8.25;8.00;;;;;;;;5067822;28;9635;-80
2023/10/01 05:10:51;;;;;;;;;12.75;11.50;;;;;;;;5067753;28;10420;-81
2023/10/01 05:13:20;;;;;;;;;7.50;6.00;;;;;;;;5067670;28;9840;-80
2023/10/01 05:15:49;;;;;;;;;8.00;8.00;;;;;;;;5065980;28;9750;-78
2023/10/01 05:18:19;;;;;;;;;6.25;6.25;;;;;;;;5068557;28;9773;-78
2023/10/01 05:20:48;;;;;;;;;6.25;6.00;;;;;;;;5068343;28;9873;-75
2023/10/01 05:23:17;;;;;;;;;6.75;6.75;;;;;;;;5068391;28;9706;-83
2023/10/01 05:25:45;;;;;;;;;7.75;7.75;;;;;;;;5068289;28;9777;-82
2023/10/01 05:28:31;;;;;;;;;9.00;7.75;;;;;;;;5067550;28;9656;-77
2023/10/01 05:30:58;;;;;;;;;7.00;6.25;;;;;;;;5066147;28;9724;-78
2023/10/01 05:33:27;;;;;;;;;9.00;7.00;;;;;;;;5067319;28;9636;-82
2023/10/01 05:35:59;;;;;;;;;11.75;8.75;;;;;;;;5067319;28;9622;-80
2023/10/01 05:38:27;;;;;;;;;6.00;6.00;;;;;;;;5066107;28;9711;-80
2023/10/01 05:40:56;;;;;;;;;7.25;7.25;;;;;;;;5066905;28;9658;-77
2023/10/01 05:43:27;;;;;;;;;12.50;9.00;;;;;;;;5066821;28;10541;-81
2023/10/01 05:46:01;;;;;;;;;12.00;9.25;;;;;;;;5065968;28;9872;-78
2023/10/01 05:48:34;;;;;;;;;8.50;6.75;;;;;;;;5055797;28;10653;-78
2023/10/01 05:51:06;;;;;;;;;12.25;9.00;;;;;;;;5066621;28;9770;-75
2023/10/01 05:53:33;;;;;;;;;9.50;8.00;;;;;;;;5067112;28;9714;-73
2023/10/01 05:56:07;;;;;;;;;7.00;7.00;;;;;;;;5069622;28;9772;-72
2023/10/01 05:58:35;;;;;;;;;8.25;7.75;;;;;;;;5069901;28;9881;-76
2023/10/01 06:01:13;;;;;;;;;11.50;6.50;;;;;;;;5069287;28;9824;-73
2023/10/01 06:03:43;;;;;;;;;10.00;10.00;;;;;;;;5070451;28;9851;-72
2023/10/01 06:06:14;;;;;;;;;9.50;7.75;;;;;;;;5070445;28;9765;-77
2023/10/01 06:08:58;;;;;;;;;8.75;8.75;;;;;;;;5070293;28;9794;-77
2023/10/01 06:11:38;;;;;;;;;9.00;6.25;;;;;;;;5070456;28;9789;-75
2023/10/01 06:14:06;;;;;;;;;8.00;6.75;;;;;;;;5069605;28;9751;-73
2023/10/01 06:16:37;;;;;;;;;8.75;8.75;;;;;;;;5070747;28;9712;-75
2023/10/01 06:19:11;;;;;;;;;8.25;7.00;;;;;;;;5070508;28;9909;-73
2023/10/01 06:21:39;;;;;;;;;9.00;9.00;;;;;;;;5071932;28;9788;-78
2023/10/01 06:24:10;;;;;;;;;10.25;8.25;;;;;;;;5072873;28;10311;-73
2023/10/01 06:26:42;;;;;;;;;13.00;8.75;;;;;;;;5072636;28;9704;-73
2023/10/01 06:29:11;;;;;;;;;8.50;8.50;;;;;;;;5072771;28;9777;-74
2023/10/01 06:32:00;;;;;;;;;10.25;10.25;;;;;;;;5073172;28;9784;-78
2023/10/01 06:34:39;;;;;;;;;7.75;6.50;;;;;;;;5071863;28;9692;-83
2023/10/01 06:37:06;;;;;;;;;9.50;7.75;;;;;;;;5070189;28;9707;-77
2023/10/01 06:39:35;;;;;;;;;12.25;10.00;;;;;;;;5070684;28;9623;-76
2023/10/01 06:44:44;;;;;;;;;14.50;11.25;;;;;;;;5070844;28;9554;-80
2023/10/01 06:47:15;;;;;;;;;13.50;12.25;;;;;;;;5069745;28;9624;-77
2023/10/01 06:49:57;;;;;;;;;11.50;10.50;;;;;;;;5069491;28;9601;-78
2023/10/01 06:52:26;;;;;;;;;16.00;16.00;;;;;;;;5069293;28;9408;-77
2023/10/01 06:54:53;;;;;;;;;22.25;19.50;;;;;;;;5069016;28;9473;-76
2023/10/01 06:57:22;;;;;;;;;14.00;14.00;;;;;;;;5068980;28;9648;-75
2023/10/01 06:59:49;;;;;;;;;14.33;12.00;;;;;;;;5069140;28;9349;-79
2023/10/01 07:02:16;;;;;;;;;22.33;16.00;;;;;;;;5068521;28;9197;-81
2023/10/01 07:04:56;;;;;;;;;19.33;18.00;;;;;;;;5069089;28;9561;-81
2023/10/01 07:07:24;;;;;;;;;19.67;16.33;;;;;;;;5068968;28;9437;-81
2023/10/01 07:09:53;;;;;;;;;13.33;13.00;;;;;;;;5069060;28;9260;-80
2023/10/01 07:12:23;;;;;;;;;17.67;17.67;;;;;;;;5068640;28;9323;-79
2023/10/01 07:14:51;;;;;;;;;14.00;13.00;;;;;;;;5068649;28;9330;-75
2023/10/01 07:17:23;;;;;;;;;15.33;13.00;;;;;;;;5068350;28;9041;-75
2023/10/01 07:20:00;;;;;;;;;17.00;14.00;;;;;;;;5068725;28;8933;-79
2023/10/01 07:22:30;;;;;;;;;13.50;13.00;;;;;;;;5056674;28;8885;-75
2023/10/01 07:25:00;;;;;;;;;16.75;14.50;;;;;;;;5068021;28;9634;-80
2023/10/01 07:27:27;;;;;;;;;19.50;15.25;;;;;;;;5068774;28;8863;-76
2023/10/01 07:29:56;;;;;;;;;15.25;15.00;;;;;;;;5067432;28;8838;-82
2023/10/01 07:32:24;;;;;;;;;15.25;14.75;;;;;;;;5068471;28;9238;-78
2023/10/01 07:34:59;;;;;;;;;16.50;14.75;;;;;;;;5068104;28;8855;-74
2023/10/01 07:37:29;;;;;;;;;15.25;13.00;;;;;;;;5068559;28;8847;-73
2023/10/01 07:39:59;;;;;;;;;12.00;11.50;;;;;;;;5067334;28;8931;-75
2023/10/01 07:42:27;;;;;;;;;12.00;12.00;;;;;;;;5068472;28;8850;-75
2023/10/01 07:44:56;;;;;;;;;17.25;16.00;;;;;;;;5067722;28;8921;-73
2023/10/01 07:47:31;;;;;;;;;12.25;12.25;;;;;;;;5068322;28;8885;-78
2023/10/01 07:50:02;;;;;;;;;17.75;14.00;;;;;;;;5068062;28;8842;-74
2023/10/01 07:52:29;;;;;;;;;12.25;10.75;;;;;;;;5068247;28;8871;-77
2023/10/01 07:55:26;;;;;;;;;12.50;10.25;;;;;;;;5057244;28;8887;-74
2023/10/01 07:57:48;;;;;;;;;17.50;16.00;;;;;;;;5067854;28;8877;-73
2023/10/01 08:00:26;;;;;;;;;11.75;11.25;;;;;;;;5069152;28;8854;-72
2023/10/01 08:05:50;;;;;;;;;11.75;11.00;;;;;;;;5058251;28;8843;-74
2023/10/01 08:08:35;;;;;;;;;12.75;11.00;;;;;;;;5072114;28;8969;-76
2023/10/01 08:11:37;;;;;;;;;13.00;12.00;;;;;;;;5071842;28;8917;-74
2023/10/01 08:13:55;;;;;;;;;11.25;11.25;;;;;;;;5072818;28;8855;-78
2023/10/01 08:16:22;;;;;;;;;13.50;10.25;;;;;;;;5069937;28;8863;-79
2023/10/01 08:18:51;;;;;;;;;16.67;13.00;;;;;;;;5067385;28;8905;-77
2023/10/01 08:21:19;;;;;;;;;14.25;11.00;;;;;;;;5069394;28;8850;-78
2023/10/01 08:23:48;;;;;;;;;10.25;10.25;;;;;;;;5067625;28;8993;-76
2023/10/01 08:29:04;;;;;;;;;12.75;10.75;;;;;;;;5056221;28;8851;-79
2023/10/01 08:34:28;;;;;;;;;10.25;9.25;;;;;;;;5054373;28;8855;-79
2023/10/01 08:36:57;;;;;;;;;10.00;10.00;;;;;;;;5065815;28;8862;-77
2023/10/01 08:39:47;;;;;;;;;8.25;8.25;;;;;;;;5067407;28;8996;-80
2023/10/01 08:42:16;;;;;;;;;12.75;12.00;;;;;;;;5057459;28;8904;-77
2023/10/01 08:44:49;;;;;;;;;10.00;10.00;;;;;;;;5066536;28;9680;-77
2023/10/01 08:47:31;;;;;;;;;10.25;9.75;;;;;;;;5067204;28;8871;-75
2023/10/01 08:50:15;;;;;;;;;16.20;11.00;;;;;;;;5065707;28;8847;-78
2023/10/01 08:52:55;;;;;;;;;10.80;10.00;;;;;;;;5067174;28;8863;-77
2023/10/01 08:55:27;;;;;;;;;10.20;9.80;;;;;;;;5067310;28;8866;-76
2023/10/01 08:57:55;;;;;;;;;12.00;10.00;;;;;;;;5067191;28;8977;-80
2023/10/01 09:00:24;;;;;;;;;11.80;8.40;;;;;;;;5069004;28;8950;-80
2023/10/01 09:02:52;;;;;;;;;12.00;10.60;;;;;;;;5069476;28;8858;-79
2023/10/01 09:05:24;;;;;;;;;9.80;9.80;;;;;;;;5067440;28;8829;-79
2023/10/01 09:08:15;;;;;;;;;8.00;8.00;;;;;;;;5066242;28;8851;-79
2023/10/01 09:10:53;;;;;;;;;10.80;10.80;;;;;;;;5066651;28;9638;-80
2023/10/01 09:13:22;;;;;;;;;8.80;8.80;;;;;;;;5067253;28;8867;-80
2023/10/01 09:15:54;;;;;;;;;13.20;12.00;;;;;;;;5066311;28;8940;-78
2023/10/01 09:18:23;;;;;;;;;9.80;9.80;;;;;;;;5066757;28;9680;-81
2023/10/01 09:23:55;;;;;;;;;10.40;8.60;;;;;;;;5066493;28;8895;-80
2023/10/01 09:26:42;;;;;;;;;9.40;9.00;;;;;;;;5067210;28;8870;-76
2023/10/01 09:29:43;;;;;;;;;9.00;9.00;;;;;;;;5057761;28;9645;-78
2023/10/01 09:32:11;;;;;;;;;9.80;9.80;;;;;;;;5070209;28;8840;-77
2023/10/01 09:34:46;;;;;;;;;10.20;9.40;;;;;;;;5070791;28;8858;-77
2023/10/01 09:37:33;;;;;;;;;10.20;10.20;;;;;;;;5060852;28;8866;-76
2023/10/01 09:40:13;;;;;;;;;9.20;8.60;;;;;;;;5070162;28;8978;-74
2023/10/01 09:42:45;;;;;;;;;8.00;6.00;;;;;;;;5072219;28;9639;-74
2023/10/01 09:45:27;;;;;;;;;6.20;6.20;;;;;;;;5061365;28;8867;-75
2023/10/01 09:48:04;;;;;;;;;7.40;6.60;;;;;;;;5073374;28;8916;-76
2023/10/01 09:50:39;;;;;;;;;9.20;9.20;;;;;;;;5074256;28;8905;-76
2023/10/01 09:53:12;;;;;;;;;10.20;10.20;;;;;;;;5074698;28;8866;-76
2023/10/01 09:55:47;;;;;;;;;9.20;7.40;;;;;;;;5071359;28;9641;-76
2023/10/01 09:58:24;;;;;;;;;10.00;9.60;;;;;;;;5071422;28;8839;-77
2023/10/01 10:00:52;;;;;;;;;10.20;6.00;;;;;;;;5070210;28;8827;-83
2023/10/01 10:03:20;;;;;;;;;7.20;7.20;;;;;;;;5073561;28;9657;-83
2023/10/01 10:05:48;;;;;;;;;6.80;5.40;;;;;;;;5071140;28;8888;-81
2023/10/01 10:08:26;;;;;;;;;15.80;15.80;;;;;;;;5071361;28;8928;-82
2023/10/01 10:10:56;;;;;;;;;7.40;7.40;;;;;;;;5069724;28;8831;-79
2023/10/01 10:13:45;;;;;;;;;5.60;5.00;;;;;;;;5070326;28;8873;-82
2023/10/01 10:16:32;;;;;;;;;5.20;5.20;;;;;;;;5060677;28;8937;-81
2023/10/01 10:19:12;;;;;;;;;7.20;7.20;;;;;;;;5069628;28;9650;-76
2023/10/01 10:22:25;;;;;;;;;6.20;6.20;;;;;;;;5070158;28;8835;-82
2023/10/01 10:25:25;;;;;;;;;4.80;4.80;;;;;;;;5064495;28;8956;-82
2023/10/01 10:27:56;;;;;;;;;7.80;6.20;;;;;;;;5062744;28;8881;-80
2023/10/01 10:30:27;;;;;;;;;5.20;4.20;;;;;;;;5068903;28;8775;-80
2023/10/01 10:33:39;;;;;;;;;6.20;6.20;;;;;;;;5069919;28;8965;-81
2023/10/01 10:36:51;;;;;;;;;8.60;7.00;;;;;;;;5070022;28;9020;-81
2023/10/01 10:43:21;;;;;;;;;4.80;4.80;;;;;;;;5049280;28;8901;-76
2023/10/01 10:45:58;;;;;;;;;9.60;5.80;;;;;;;;5069850;28;9019;-73
2023/10/01 10:49:00;;;;;;;;;10.20;6.80;;;;;;;;5057871;28;8981;-77
2023/10/01 10:51:46;;;;;;;;;5.60;5.60;;;;;;;;5069476;28;8854;-81
2023/10/01 10:54:16;;;;;;;;;6.60;6.60;;;;;;;;5069051;28;8858;-76
2023/10/01 10:56:44;;;;;;;;;4.60;4.60;;;;;;;;5069488;28;8860;-79
2023/10/01 10:59:15;;;;;;;;;6.40;5.60;;;;;;;;5068717;28;8952;-80
2023/10/01 11:01:47;;;;;;;;;7.20;5.80;;;;;;;;5068781;28;8814;-78
2023/10/01 11:04:16;;;;;;;;;7.00;5.40;;;;;;;;5069229;28;8843;-76
2023/10/01 11:06:43;;;;;;;;;5.20;4.60;;;;;;;;5069591;28;8963;-77
2023/10/01 11:09:22;;;;;;;;;4.00;4.00;;;;;;;;5070698;28;8847;-77
2023/10/01 11:11:50;;;;;;;;;6.80;5.40;;;;;;;;5069833;28;8985;-78
2023/10/01 11:14:20;;;;;;;;;2.80;2.80;;;;;;;;5069586;28;8851;-75
2023/10/01 11:16:48;;;;;;;;;6.20;6.20;;;;;;;;5068518;28;8994;-75
2023/10/01 11:19:18;;;;;;;;;5.60;4.80;;;;;;;;5069399;28;8967;-76
2023/10/01 11:21:54;;;;;;;;;4.00;4.00;;;;;;;;5069968;28;8851;-74
2023/10/01 11:24:26;;;;;;;;;8.00;6.00;;;;;;;;5071197;28;8861;-74
2023/10/01 11:27:22;;;;;;;;;5.40;5.40;;;;;;;;5083562;28;8863;-73
2023/10/01 11:30:20;;;;;;;;;4.60;4.00;;;;;;;;5071045;28;8973;-74
2023/10/01 11:36:07;;;;;;;;;4.80;4.80;;;;;;;;5037712;28;8965;-76
2023/10/01 11:38:36;;;;;;;;;6.00;4.00;;;;;;;;5068723;28;8852;-79
2023/10/01 11:41:10;;;;;;;;;4.40;4.40;;;;;;;;5068460;28;8923;-76
2023/10/01 11:43:39;;;;;;;;;4.20;4.00;;;;;;;;5070753;28;8835;-74
2023/10/01 11:46:20;;;;;;;;;4.00;2.80;;;;;;;;5069116;28;9257;-79
2023/10/01 11:48:59;;;;;;;;;6.40;5.60;;;;;;;;5068341;28;8850;-76
2023/10/01 11:51:30;;;;;;;;;4.40;3.00;;;;;;;;5067452;28;8933;-74
2023/10/01 11:54:07;;;;;;;;;5.20;4.00;;;;;;;;5067072;28;8851;-73
2023/10/01 11:56:37;;;;;;;;;6.20;4.80;;;;;;;;5068375;28;8908;-79
2023/10/01 11:59:08;;;;;;;;;4.00;4.00;;;;;;;;5067879;28;8855;-79
2023/10/01 12:01:45;;;;;;;;;5.60;3.80;;;;;;;;5068198;28;8787;-80
2023/10/01 12:04:16;;;;;;;;;6.60;4.80;;;;;;;;5067549;28;8981;-76
2023/10/01 12:06:43;;;;;;;;;4.40;4.40;;;;;;;;5068286;28;8890;-81
2023/10/01 12:09:11;;;;;;;;;6.40;3.20;;;;;;;;5067591;28;8957;-80
2023/10/01 12:11:40;;;;;;;;;4.40;4.40;;;;;;;;5068353;28;8861;-79
2023/10/01 12:14:17;;;;;;;;;4.20;4.20;;;;;;;;5067496;28;8839;-80
2023/10/01 12:16:48;;;;;;;;;5.20;5.20;;;;;;;;5068549;28;8855;-78
2023/10/01 12:19:24;;;;;;;;;3.60;3.00;;;;;;;;5056294;28;8969;-81
2023/10/01 12:22:05;;;;;;;;;3.80;3.80;;;;;;;;5067289;28;9683;-74
2023/10/01 12:24:39;;;;;;;;;8.00;6.60;;;;;;;;5068489;28;8885;-79
2023/10/01 12:27:10;;;;;;;;;5.80;5.80;;;;;;;;5064683;28;8870;-77
2023/10/01 12:29:49;;;;;;;;;5.20;3.00;;;;;;;;5067640;28;9635;-78
2023/10/01 12:32:19;;;;;;;;;3.80;3.80;;;;;;;;5065019;28;8957;-79
2023/10/01 12:34:48;;;;;;;;;5.40;4.80;;;;;;;;5067308;28;8835;-79
2023/10/01 12:37:35;;;;;;;;;6.20;5.00;;;;;;;;5067277;28;8857;-75
2023/10/01 12:40:14;;;;;;;;;5.00;5.00;;;;;;;;5065983;28;9725;-81
2023/10/01 12:42:46;;;;;;;;;7.00;5.40;;;;;;;;5067032;28;8854;-78
2023/10/01 12:45:19;;;;;;;;;6.00;4.40;;;;;;;;5055823;28;8883;-82
2023/10/01 12:47:51;;;;;;;;;5.00;5.00;;;;;;;;5066990;28;8842;-73
2023/10/01 12:50:26;;;;;;;;;5.40;5.40;;;;;;;;5068584;28;8860;-74
2023/10/01 12:53:19;;;;;;;;;6.00;5.80;;;;;;;;5067942;28;8862;-79
2023/10/01 12:55:51;;;;;;;;;4.40;3.20;;;;;;;;5067310;28;8893;-76
2023/10/01 12:58:20;;;;;;;;;8.80;7.00;;;;;;;;5056843;28;8977;-73
2023/10/01 13:00:50;;;;;;;;;5.60;5.60;;;;;;;;5067450;28;9654;-73
2023/10/01 13:03:20;;;;;;;;;5.00;5.00;;;;;;;;5070301;28;9028;-77
2023/10/01 13:05:49;;;;;;;;;5.60;5.60;;;;;;;;5075454;28;8850;-74
2023/10/01 13:08:28;;;;;;;;;9.40;6.60;;;;;;;;5075915;28;8836;-79
2023/10/01 13:10:55;;;;;;;;;6.20;6.20;;;;;;;;5075408;28;8869;-74
2023/10/01 13:13:29;;;;;;;;;6.40;5.60;;;;;;;;5076748;28;9617;-74
2023/10/01 13:15:57;;;;;;;;;8.60;6.00;;;;;;;;5077339;28;8847;-74
2023/10/01 13:18:33;;;;;;;;;6.00;6.00;;;;;;;;5073798;28;8875;-77
2023/10/01 13:21:10;;;;;;;;;6.80;6.00;;;;;;;;5064144;28;9223;-82
2023/10/01 13:23:44;;;;;;;;;10.60;7.40;;;;;;;;5075573;28;8885;-81
2023/10/01 13:26:31;;;;;;;;;6.40;5.80;;;;;;;;5076484;28;8835;-80
2023/10/01 13:29:00;;;;;;;;;8.60;7.20;;;;;;;;5061163;28;8851;-82
2023/10/01 13:31:43;;;;;;;;;8.60;8.60;;;;;;;;5072996;28;8783;-80
2023/10/01 13:34:20;;;;;;;;;9.00;6.00;;;;;;;;5073856;28;8843;-83
2023/10/01 13:36:51;;;;;;;;;13.00;8.20;;;;;;;;5073032;28;8881;-75
2023/10/01 14:09:52;;;;;;;;;7.40;7.40;;;;;;;;5073344;28;8839;-77
2023/10/01 14:12:41;;;;;;;;;9.60;8.20;;;;;;;;5073162;28;8878;-81
2023/10/01 14:15:23;;;;;;;;;7.60;6.00;;;;;;;;5071458;28;8877;-81
2023/10/01 14:17:54;;;;;;;;;7.60;7.60;;;;;;;;5070608;28;8835;-79
2023/10/01 14:23:23;;;;;;;;;8.60;8.60;;;;;;;;5070549;28;8835;-77
2023/10/01 14:25:58;;;;;;;;;11.20;10.20;;;;;;;;5058305;28;8874;-79
2023/10/01 14:28:27;;;;;;;;;10.40;10.40;;;;;;;;5070131;28;9509;-76
2023/10/01 14:31:02;;;;;;;;;9.40;9.40;;;;;;;;5069048;28;8901;-77
2023/10/01 14:33:30;;;;;;;;;10.80;9.00;;;;;;;;5070034;28;8823;-76
2023/10/01 14:36:02;;;;;;;;;10.40;10.00;;;;;;;;5070258;28;8860;-79
2023/10/01 14:38:38;;;;;;;;;10.60;9.60;;;;;;;;5069790;28;8849;-77
2023/10/01 14:41:15;;;;;;;;;10.00;8.80;;;;;;;;5069609;28;8863;-74
2023/10/01 14:43:51;;;;;;;;;7.00;7.00;;;;;;;;5070849;28;8855;-74
2023/10/01 14:46:19;;;;;;;;;11.80;8.00;;;;;;;;5072470;28;8858;-74
2023/10/01 14:48:49;;;;;;;;;9.60;9.00;;;;;;;;5072719;28;8843;-73
2023/10/01 14:51:20;;;;;;;;;12.60;9.00;;;;;;;;5072265;28;8859;-83
2023/10/01 14:53:54;;;;;;;;;8.60;8.60;;;;;;;;5072662;28;8835;-79
2023/10/01 14:56:21;;;;;;;;;8.20;8.20;;;;;;;;5073855;28;8981;-74
2023/10/01 14:58:51;;;;;;;;;14.60;11.00;;;;;;;;5072722;28;8872;-83
2023/10/01 15:01:18;;;;;;;;;8.00;8.00;;;;;;;;5071023;28;8787;-78
2023/10/01 15:03:53;;;;;;;;;7.80;7.60;;;;;;;;5070687;28;9002;-73
2023/10/01 15:06:21;;;;;;;;;10.80;8.40;;;;;;;;5060012;28;8855;-77
2023/10/01 15:08:55;;;;;;;;;3.00;3.00;;;;;;;;5069673;28;8847;-80
2023/10/01 15:11:25;;;;;;;;;8.20;8.20;;;;;;;;5069606;28;8874;-77
2023/10/01 15:13:52;;;;;;;;;9.00;9.00;;;;;;;;5069041;28;8834;-74
2023/10/01 15:16:19;;;;;;;;;6.80;6.00;;;;;;;;5069726;28;8871;-80
2023/10/01 15:19:01;;;;;;;;;8.00;8.00;;;;;;;;5069916;28;9640;-74
2023/10/01 15:21:31;;;;;;;;;9.00;7.60;;;;;;;;5071573;28;8878;-78
2023/10/01 15:24:00;;;;;;;;;5.40;5.40;;;;;;;;5069446;28;9099;-79
2023/10/01 15:26:30;;;;;;;;;7.80;7.20;;;;;;;;5069879;28;8839;-76
2023/10/01 15:29:05;;;;;;;;;9.40;9.40;;;;;;;;5069004;28;8858;-83
2023/10/01 15:31:33;;;;;;;;;9.20;7.60;;;;;;;;5068601;28;8794;-77
2023/10/01 15:34:01;;;;;;;;;7.80;7.80;;;;;;;;5070025;28;8877;-85
2023/10/01 15:36:46;;;;;;;;;6.80;6.80;;;;;;;;5068706;28;8854;-74
2023/10/01 15:39:37;;;;;;;;;8.40;8.40;;;;;;;;5069230;28;9634;-83
2023/10/01 15:42:15;;;;;;;;;6.40;6.40;;;;;;;;5057753;28;8839;-74
2023/10/01 15:44:50;;;;;;;;;9.00;7.80;;;;;;;;5069079;28;8838;-74
2023/10/01 15:47:32;;;;;;;;;8.00;8.00;;;;;;;;5070094;28;8855;-84
2023/10/01 15:50:05;;;;;;;;;10.80;8.00;;;;;;;;5068879;28;8847;-80
2023/10/01 15:52:38;;;;;;;;;6.80;6.00;;;;;;;;5069217;28;9005;-76
2023/10/01 15:55:13;;;;;;;;;9.20;8.40;;;;;;;;5068167;28;8883;-76
2023/10/01 15:57:43;;;;;;;;;9.40;8.60;;;;;;;;5068614;28;8831;-75
2023/10/01 16:00:25;;;;;;;;;8.00;6.80;;;;;;;;5068612;28;8869;-74
2023/10/01 16:03:07;;;;;;;;;8.80;5.80;;;;;;;;5068075;28;9649;-79
2023/10/01 16:05:40;;;;;;;;;6.40;6.40;;;;;;;;5067914;28;8874;-77
2023/10/01 16:08:08;;;;;;;;;6.40;6.40;;;;;;;;5068832;28;8866;-79
2023/10/01 16:10:44;;;;;;;;;7.80;7.80;;;;;;;;5068464;28;8854;-77
2023/10/01 16:13:14;;;;;;;;;6.60;6.60;;;;;;;;5069413;28;8981;-78
2023/10/01 16:15:45;;;;;;;;;10.20;8.60;;;;;;;;5068482;28;8847;-82
2023/10/01 16:18:13;;;;;;;;;8.60;7.60;;;;;;;;5068792;28;8843;-82
2023/10/01 16:20:40;;;;;;;;;9.40;5.80;;;;;;;;5068873;28;8866;-75
2023/10/01 16:23:14;;;;;;;;;10.40;9.00;;;;;;;;5068815;28;8855;-73
2023/10/01 16:25:43;;;;;;;;;7.40;7.40;;;;;;;;5071125;28;8947;-74
2023/10/01 16:28:19;;;;;;;;;8.40;6.80;;;;;;;;5070081;28;8847;-72
2023/10/01 16:31:01;;;;;;;;;8.00;8.00;;;;;;;;5068510;28;8799;-74
2023/10/01 16:33:31;;;;;;;;;8.40;6.60;;;;;;;;5069446;28;8843;-74